Terminal Aerodrome Forecast
Issued by NWS Brownsville, TX

Home | Current Version | Previous Version | Text Only | Print | Product List | Glossary On
Versions: 1 2 3 4 5 6 7 8 9 10 11 12 13 14 15 16 17 18 19 20
506
FTUS44 KBRO 291218 AAA
TAFBRO
TAF AMD
KBRO 291218Z 2912/3012 36008KT P6SM -TSRA OVC110CB
     FM291330 12010KT P6SM BKN100 BKN250
     FM301000 09006KT P6SM SCT050 BKN250=

USA.gov is the U.S. government's official web portal to all federal, state and local government web resources and services.